sensor_id;sensor_type;location;lat;lon;timestamp;P1;durP1;ratioP1;P2;durP2;ratioP2
34836;SDS011;21053;50.848;4.652;2024-02-23T00:02:04;133.18;;;121.60;;
34836;SDS011;21053;50.848;4.652;2024-02-23T00:04:32;122.43;;;111.47;;
34836;SDS011;21053;50.848;4.652;2024-02-23T00:06:58;151.75;;;138.77;;
34836;SDS011;21053;50.848;4.652;2024-02-23T00:09:26;202.35;;;185.40;;
34836;SDS011;21053;50.848;4.652;2024-02-23T00:11:55;165.98;;;151.90;;
34836;SDS011;21053;50.848;4.652;2024-02-23T00:14:24;143.63;;;131.50;;
34836;SDS011;21053;50.848;4.652;2024-02-23T00:16:50;146.85;;;134.60;;
34836;SDS011;21053;50.848;4.652;2024-02-23T00:19:16;158.02;;;144.60;;
34836;SDS011;21053;50.848;4.652;2024-02-23T00:21:44;185.20;;;169.45;;
34836;SDS011;21053;50.848;4.652;2024-02-23T00:24:17;153.25;;;139.88;;
34836;SDS011;21053;50.848;4.652;2024-02-23T00:29:15;136.80;;;125.38;;
34836;SDS011;21053;50.848;4.652;2024-02-23T00:31:42;153.88;;;140.98;;
34836;SDS011;21053;50.848;4.652;2024-02-23T00:34:11;151.68;;;138.88;;
34836;SDS011;21053;50.848;4.652;2024-02-23T00:36:39;186.20;;;170.63;;
34836;SDS011;21053;50.848;4.652;2024-02-23T00:39:06;153.18;;;140.20;;
34836;SDS011;21053;50.848;4.652;2024-02-23T00:41:32;180.70;;;165.48;;
34836;SDS011;21053;50.848;4.652;2024-02-23T00:44:00;134.75;;;123.15;;
34836;SDS011;21053;50.848;4.652;2024-02-23T00:46:26;157.82;;;142.02;;
34836;SDS011;21053;50.848;4.652;2024-02-23T00:51:21;130.65;;;119.63;;
34836;SDS011;21053;50.848;4.652;2024-02-23T00:56:17;172.38;;;158.23;;
34836;SDS011;21053;50.848;4.652;2024-02-23T00:58:46;147.27;;;134.68;;
34836;SDS011;21053;50.848;4.652;2024-02-23T01:03:41;175.38;;;160.75;;
34836;SDS011;21053;50.848;4.652;2024-02-23T01:06:08;177.38;;;161.95;;
34836;SDS011;21053;50.848;4.652;2024-02-23T01:08:37;163.25;;;149.18;;
34836;SDS011;21053;50.848;4.652;2024-02-23T01:11:02;198.88;;;182.15;;
34836;SDS011;21053;50.848;4.652;2024-02-23T01:13:31;162.57;;;148.48;;
34836;SDS011;21053;50.848;4.652;2024-02-23T01:15:59;195.48;;;178.05;;
34836;SDS011;21053;50.848;4.652;2024-02-23T01:18:24;176.18;;;161.00;;
34836;SDS011;21053;50.848;4.652;2024-02-23T01:23:21;179.18;;;163.90;;
34836;SDS011;21053;50.848;4.652;2024-02-23T01:25:49;163.90;;;149.88;;
34836;SDS011;21053;50.848;4.652;2024-02-23T01:28:20;208.20;;;190.68;;
34836;SDS011;21053;50.848;4.652;2024-02-23T01:30:48;178.63;;;163.73;;
34836;SDS011;21053;50.848;4.652;2024-02-23T01:33:17;183.68;;;167.48;;
34836;SDS011;21053;50.848;4.652;2024-02-23T01:35:46;167.52;;;151.98;;
34836;SDS011;21053;50.848;4.652;2024-02-23T01:38:12;161.10;;;147.27;;
34836;SDS011;21053;50.848;4.652;2024-02-23T01:40:44;149.93;;;137.13;;
34836;SDS011;21053;50.848;4.652;2024-02-23T01:43:11;156.80;;;143.35;;
34836;SDS011;21053;50.848;4.652;2024-02-23T01:45:38;149.63;;;136.60;;
34836;SDS011;21053;50.848;4.652;2024-02-23T01:48:04;161.07;;;146.98;;
34836;SDS011;21053;50.848;4.652;2024-02-23T01:50:31;176.52;;;161.50;;
34836;SDS011;21053;50.848;4.652;2024-02-23T01:53:00;157.30;;;143.88;;
34836;SDS011;21053;50.848;4.652;2024-02-23T01:55:29;154.68;;;141.38;;
34836;SDS011;21053;50.848;4.652;2024-02-23T01:57:57;141.38;;;129.48;;
34836;SDS011;21053;50.848;4.652;2024-02-23T02:02:58;154.82;;;141.55;;
34836;SDS011;21053;50.848;4.652;2024-02-23T02:05:26;132.65;;;121.07;;
34836;SDS011;21053;50.848;4.652;2024-02-23T02:07:55;154.68;;;140.00;;
34836;SDS011;21053;50.848;4.652;2024-02-23T02:13:01;169.13;;;154.43;;
34836;SDS011;21053;50.848;4.652;2024-02-23T02:15:31;150.10;;;137.15;;
34836;SDS011;21053;50.848;4.652;2024-02-23T02:20:25;185.88;;;169.85;;
34836;SDS011;21053;50.848;4.652;2024-02-23T02:23:03;137.25;;;125.45;;
34836;SDS011;21053;50.848;4.652;2024-02-23T02:25:30;172.32;;;157.23;;
34836;SDS011;21053;50.848;4.652;2024-02-23T02:27:58;168.05;;;153.60;;
34836;SDS011;21053;50.848;4.652;2024-02-23T02:32:53;147.88;;;135.00;;
34836;SDS011;21053;50.848;4.652;2024-02-23T02:35:20;184.10;;;168.25;;
34836;SDS011;21053;50.848;4.652;2024-02-23T02:37:48;177.88;;;160.13;;
34836;SDS011;21053;50.848;4.652;2024-02-23T02:40:17;169.88;;;153.82;;
34836;SDS011;21053;50.848;4.652;2024-02-23T02:42:45;188.00;;;171.63;;
34836;SDS011;21053;50.848;4.652;2024-02-23T02:45:14;208.95;;;190.75;;
34836;SDS011;21053;50.848;4.652;2024-02-23T02:50:14;176.23;;;161.15;;
34836;SDS011;21053;50.848;4.652;2024-02-23T02:52:40;180.10;;;164.10;;
34836;SDS011;21053;50.848;4.652;2024-02-23T02:55:06;137.40;;;123.93;;
34836;SDS011;21053;50.848;4.652;2024-02-23T03:00:03;157.95;;;143.90;;
34836;SDS011;21053;50.848;4.652;2024-02-23T03:02:33;218.80;;;200.10;;
34836;SDS011;21053;50.848;4.652;2024-02-23T03:05:02;176.82;;;161.32;;
34836;SDS011;21053;50.848;4.652;2024-02-23T03:07:28;166.50;;;152.48;;
34836;SDS011;21053;50.848;4.652;2024-02-23T03:09:53;174.10;;;158.90;;
34836;SDS011;21053;50.848;4.652;2024-02-23T03:12:20;155.80;;;142.32;;
34836;SDS011;21053;50.848;4.652;2024-02-23T03:14:46;207.27;;;187.93;;
34836;SDS011;21053;50.848;4.652;2024-02-23T03:17:14;158.70;;;144.32;;
34836;SDS011;21053;50.848;4.652;2024-02-23T03:19:40;185.68;;;170.20;;
34836;SDS011;21053;50.848;4.652;2024-02-23T03:22:07;197.32;;;180.25;;
34836;SDS011;21053;50.848;4.652;2024-02-23T03:24:35;173.82;;;159.13;;
34836;SDS011;21053;50.848;4.652;2024-02-23T03:27:02;176.50;;;161.60;;
34836;SDS011;21053;50.848;4.652;2024-02-23T03:29:31;171.60;;;157.25;;
34836;SDS011;21053;50.848;4.652;2024-02-23T03:31:58;174.55;;;160.02;;
34836;SDS011;21053;50.848;4.652;2024-02-23T03:34:25;176.65;;;162.00;;
34836;SDS011;21053;50.848;4.652;2024-02-23T03:36:50;186.73;;;171.15;;
34836;SDS011;21053;50.848;4.652;2024-02-23T03:39:19;199.88;;;183.02;;
34836;SDS011;21053;50.848;4.652;2024-02-23T03:41:46;162.70;;;149.05;;
34836;SDS011;21053;50.848;4.652;2024-02-23T03:44:11;150.85;;;138.05;;
34836;SDS011;21053;50.848;4.652;2024-02-23T03:46:40;187.60;;;169.27;;
34836;SDS011;21053;50.848;4.652;2024-02-23T03:49:07;185.43;;;169.52;;
34836;SDS011;21053;50.848;4.652;2024-02-23T03:51:33;197.00;;;180.23;;
34836;SDS011;21053;50.848;4.652;2024-02-23T03:54:05;161.60;;;147.93;;
34836;SDS011;21053;50.848;4.652;2024-02-23T03:56:38;160.07;;;146.20;;
34836;SDS011;21053;50.848;4.652;2024-02-23T03:59:08;171.02;;;156.50;;
34836;SDS011;21053;50.848;4.652;2024-02-23T04:01:35;182.50;;;166.30;;
34836;SDS011;21053;50.848;4.652;2024-02-23T04:04:03;181.38;;;165.95;;
34836;SDS011;21053;50.848;4.652;2024-02-23T04:06:31;147.75;;;134.55;;
34836;SDS011;21053;50.848;4.652;2024-02-23T04:08:59;197.75;;;180.75;;
34836;SDS011;21053;50.848;4.652;2024-02-23T04:11:28;166.50;;;151.60;;
34836;SDS011;21053;50.848;4.652;2024-02-23T04:16:23;203.00;;;185.38;;
34836;SDS011;21053;50.848;4.652;2024-02-23T04:18:52;202.57;;;184.88;;
34836;SDS011;21053;50.848;4.652;2024-02-23T04:21:21;201.25;;;183.88;;
34836;SDS011;21053;50.848;4.652;2024-02-23T04:23:46;190.82;;;173.98;;
34836;SDS011;21053;50.848;4.652;2024-02-23T04:26:15;160.45;;;146.32;;
34836;SDS011;21053;50.848;4.652;2024-02-23T04:28:41;179.00;;;162.15;;
34836;SDS011;21053;50.848;4.652;2024-02-23T04:31:11;183.80;;;167.88;;
34836;SDS011;21053;50.848;4.652;2024-02-23T04:33:37;138.13;;;126.25;;
34836;SDS011;21053;50.848;4.652;2024-02-23T04:36:04;166.02;;;151.93;;
34836;SDS011;21053;50.848;4.652;2024-02-23T04:38:34;158.55;;;145.27;;
34836;SDS011;21053;50.848;4.652;2024-02-23T04:41:02;175.00;;;160.13;;
34836;SDS011;21053;50.848;4.652;2024-02-23T04:43:30;157.77;;;144.20;;
34836;SDS011;21053;50.848;4.652;2024-02-23T04:45:58;140.75;;;128.55;;
34836;SDS011;21053;50.848;4.652;2024-02-23T04:48:24;155.18;;;141.55;;
34836;SDS011;21053;50.848;4.652;2024-02-23T04:50:50;195.38;;;178.52;;
34836;SDS011;21053;50.848;4.652;2024-02-23T04:53:19;162.00;;;147.75;;
34836;SDS011;21053;50.848;4.652;2024-02-23T04:55:46;207.70;;;189.40;;
34836;SDS011;21053;50.848;4.652;2024-02-23T04:58:14;224.02;;;204.10;;
34836;SDS011;21053;50.848;4.652;2024-02-23T05:00:42;211.98;;;192.60;;
34836;SDS011;21053;50.848;4.652;2024-02-23T05:03:09;202.48;;;183.98;;
34836;SDS011;21053;50.848;4.652;2024-02-23T05:05:35;249.85;;;227.27;;
34836;SDS011;21053;50.848;4.652;2024-02-23T05:08:01;257.52;;;234.30;;
34836;SDS011;21053;50.848;4.652;2024-02-23T05:10:28;279.60;;;254.10;;
34836;SDS011;21053;50.848;4.652;2024-02-23T05:12:57;214.32;;;194.93;;
34836;SDS011;21053;50.848;4.652;2024-02-23T05:15:26;233.77;;;212.68;;
34836;SDS011;21053;50.848;4.652;2024-02-23T05:17:51;205.10;;;186.50;;
34836;SDS011;21053;50.848;4.652;2024-02-23T05:20:24;259.70;;;236.75;;
34836;SDS011;21053;50.848;4.652;2024-02-23T05:25:19;186.05;;;168.88;;
34836;SDS011;21053;50.848;4.652;2024-02-23T05:27:45;202.43;;;184.20;;
34836;SDS011;21053;50.848;4.652;2024-02-23T05:30:13;222.05;;;202.15;;
34836;SDS011;21053;50.848;4.652;2024-02-23T05:32:40;213.48;;;194.05;;
34836;SDS011;21053;50.848;4.652;2024-02-23T05:37:38;228.50;;;207.65;;
34836;SDS011;21053;50.848;4.652;2024-02-23T05:40:09;250.50;;;228.43;;
34836;SDS011;21053;50.848;4.652;2024-02-23T05:42:36;222.80;;;189.63;;
34836;SDS011;21053;50.848;4.652;2024-02-23T05:45:11;242.30;;;220.38;;
34836;SDS011;21053;50.848;4.652;2024-02-23T05:47:39;271.85;;;247.48;;
34836;SDS011;21053;50.848;4.652;2024-02-23T05:50:05;209.40;;;190.13;;
34836;SDS011;21053;50.848;4.652;2024-02-23T05:52:35;212.32;;;193.20;;
34836;SDS011;21053;50.848;4.652;2024-02-23T05:55:03;226.15;;;205.75;;
34836;SDS011;21053;50.848;4.652;2024-02-23T05:57:29;243.98;;;222.35;;
34836;SDS011;21053;50.848;4.652;2024-02-23T05:59:56;232.50;;;211.48;;
34836;SDS011;21053;50.848;4.652;2024-02-23T06:02:25;234.38;;;213.75;;
34836;SDS011;21053;50.848;4.652;2024-02-23T06:04:53;217.48;;;197.98;;
34836;SDS011;21053;50.848;4.652;2024-02-23T06:07:20;231.95;;;211.20;;
34836;SDS011;21053;50.848;4.652;2024-02-23T06:10:04;253.23;;;230.63;;
34836;SDS011;21053;50.848;4.652;2024-02-23T06:12:31;214.75;;;195.40;;
34836;SDS011;21053;50.848;4.652;2024-02-23T06:15:03;258.60;;;235.40;;
34836;SDS011;21053;50.848;4.652;2024-02-23T06:17:30;233.43;;;212.48;;
34836;SDS011;21053;50.848;4.652;2024-02-23T06:22:25;213.52;;;194.23;;
34836;SDS011;21053;50.848;4.652;2024-02-23T06:24:51;237.52;;;214.45;;
34836;SDS011;21053;50.848;4.652;2024-02-23T06:27:20;217.00;;;197.52;;
34836;SDS011;21053;50.848;4.652;2024-02-23T06:29:47;155.27;;;141.38;;
34836;SDS011;21053;50.848;4.652;2024-02-23T06:32:12;191.05;;;173.85;;
34836;SDS011;21053;50.848;4.652;2024-02-23T06:34:40;199.60;;;179.57;;
34836;SDS011;21053;50.848;4.652;2024-02-23T06:37:06;146.55;;;133.32;;
34836;SDS011;21053;50.848;4.652;2024-02-23T06:39:32;211.98;;;193.00;;
34836;SDS011;21053;50.848;4.652;2024-02-23T06:42:00;203.85;;;185.48;;
34836;SDS011;21053;50.848;4.652;2024-02-23T06:44:29;180.57;;;164.13;;
34836;SDS011;21053;50.848;4.652;2024-02-23T06:46:54;152.38;;;138.63;;
34836;SDS011;21053;50.848;4.652;2024-02-23T06:49:23;201.52;;;183.40;;
34836;SDS011;21053;50.848;4.652;2024-02-23T06:51:49;155.32;;;141.23;;
34836;SDS011;21053;50.848;4.652;2024-02-23T06:54:16;182.18;;;165.55;;
34836;SDS011;21053;50.848;4.652;2024-02-23T06:56:43;183.20;;;166.30;;
34836;SDS011;21053;50.848;4.652;2024-02-23T06:59:09;201.10;;;182.98;;
34836;SDS011;21053;50.848;4.652;2024-02-23T07:01:46;202.18;;;183.55;;
34836;SDS011;21053;50.848;4.652;2024-02-23T07:04:14;187.80;;;169.68;;
34836;SDS011;21053;50.848;4.652;2024-02-23T07:06:42;244.77;;;222.13;;
34836;SDS011;21053;50.848;4.652;2024-02-23T07:09:09;247.50;;;225.18;;
34836;SDS011;21053;50.848;4.652;2024-02-23T07:11:38;248.27;;;225.23;;
34836;SDS011;21053;50.848;4.652;2024-02-23T07:14:06;221.32;;;201.07;;
34836;SDS011;21053;50.848;4.652;2024-02-23T07:16:39;254.95;;;231.63;;
34836;SDS011;21053;50.848;4.652;2024-02-23T07:19:08;207.98;;;189.15;;
34836;SDS011;21053;50.848;4.652;2024-02-23T07:21:35;227.52;;;206.25;;
34836;SDS011;21053;50.848;4.652;2024-02-23T07:24:04;251.98;;;227.85;;
34836;SDS011;21053;50.848;4.652;2024-02-23T07:29:02;260.02;;;236.70;;
34836;SDS011;21053;50.848;4.652;2024-02-23T07:31:27;228.85;;;207.57;;
34836;SDS011;21053;50.848;4.652;2024-02-23T07:36:35;231.75;;;210.18;;
34836;SDS011;21053;50.848;4.652;2024-02-23T07:39:07;200.98;;;183.13;;
34836;SDS011;21053;50.848;4.652;2024-02-23T07:41:34;194.85;;;177.05;;
34836;SDS011;21053;50.848;4.652;2024-02-23T07:43:59;199.07;;;180.70;;
34836;SDS011;21053;50.848;4.652;2024-02-23T07:46:26;211.43;;;192.40;;
34836;SDS011;21053;50.848;4.652;2024-02-23T07:48:53;205.68;;;186.80;;
34836;SDS011;21053;50.848;4.652;2024-02-23T07:51:19;260.48;;;237.15;;
34836;SDS011;21053;50.848;4.652;2024-02-23T07:53:47;224.55;;;203.85;;
34836;SDS011;21053;50.848;4.652;2024-02-23T07:56:12;198.27;;;178.52;;
34836;SDS011;21053;50.848;4.652;2024-02-23T07:58:38;224.63;;;204.73;;
34836;SDS011;21053;50.848;4.652;2024-02-23T08:01:04;214.68;;;195.38;;
34836;SDS011;21053;50.848;4.652;2024-02-23T08:03:30;186.05;;;169.13;;
34836;SDS011;21053;50.848;4.652;2024-02-23T08:05:56;226.07;;;205.93;;
34836;SDS011;21053;50.848;4.652;2024-02-23T08:08:25;199.88;;;181.75;;
34836;SDS011;21053;50.848;4.652;2024-02-23T08:10:54;218.35;;;198.05;;
34836;SDS011;21053;50.848;4.652;2024-02-23T08:13:23;233.10;;;211.45;;
34836;SDS011;21053;50.848;4.652;2024-02-23T08:15:49;261.52;;;237.45;;
34836;SDS011;21053;50.848;4.652;2024-02-23T08:18:14;248.23;;;225.55;;
34836;SDS011;21053;50.848;4.652;2024-02-23T08:23:09;256.25;;;232.88;;
34836;SDS011;21053;50.848;4.652;2024-02-23T08:25:36;270.13;;;245.23;;
34836;SDS011;21053;50.848;4.652;2024-02-23T08:28:01;218.73;;;198.77;;
34836;SDS011;21053;50.848;4.652;2024-02-23T08:30:30;213.55;;;194.85;;
34836;SDS011;21053;50.848;4.652;2024-02-23T08:33:02;173.65;;;158.00;;
34836;SDS011;21053;50.848;4.652;2024-02-23T08:35:30;159.98;;;145.98;;
34836;SDS011;21053;50.848;4.652;2024-02-23T08:38:02;174.32;;;159.68;;
34836;SDS011;21053;50.848;4.652;2024-02-23T08:48:43;190.57;;;174.30;;
34836;SDS011;21053;50.848;4.652;2024-02-23T08:51:12;207.05;;;189.07;;
34836;SDS011;21053;50.848;4.652;2024-02-23T08:53:38;231.23;;;210.90;;
34836;SDS011;21053;50.848;4.652;2024-02-23T08:56:04;245.73;;;224.57;;
34836;SDS011;21053;50.848;4.652;2024-02-23T08:58:34;209.68;;;191.10;;
34836;SDS011;21053;50.848;4.652;2024-02-23T09:01:01;188.13;;;170.88;;
34836;SDS011;21053;50.848;4.652;2024-02-23T09:03:29;181.88;;;165.50;;
34836;SDS011;21053;50.848;4.652;2024-02-23T09:05:55;181.57;;;165.27;;
34836;SDS011;21053;50.848;4.652;2024-02-23T09:08:22;190.13;;;173.27;;
34836;SDS011;21053;50.848;4.652;2024-02-23T09:10:49;170.88;;;155.50;;
34836;SDS011;21053;50.848;4.652;2024-02-23T09:13:17;216.77;;;198.02;;
34836;SDS011;21053;50.848;4.652;2024-02-23T09:15:43;252.50;;;230.57;;
34836;SDS011;21053;50.848;4.652;2024-02-23T09:18:09;156.65;;;142.82;;
34836;SDS011;21053;50.848;4.652;2024-02-23T09:20:38;168.68;;;154.27;;
34836;SDS011;21053;50.848;4.652;2024-02-23T09:23:03;180.93;;;164.55;;
34836;SDS011;21053;50.848;4.652;2024-02-23T09:25:32;168.85;;;152.43;;
34836;SDS011;21053;50.848;4.652;2024-02-23T09:27:58;179.90;;;164.18;;
34836;SDS011;21053;50.848;4.652;2024-02-23T09:30:27;188.55;;;172.43;;
34836;SDS011;21053;50.848;4.652;2024-02-23T09:32:53;155.55;;;141.82;;
34836;SDS011;21053;50.848;4.652;2024-02-23T09:35:21;146.25;;;133.32;;
34836;SDS011;21053;50.848;4.652;2024-02-23T09:37:48;162.18;;;147.90;;
34836;SDS011;21053;50.848;4.652;2024-02-23T09:40:17;181.80;;;166.00;;
34836;SDS011;21053;50.848;4.652;2024-02-23T09:42:42;136.23;;;124.20;;
34836;SDS011;21053;50.848;4.652;2024-02-23T09:45:16;159.52;;;145.68;;
34836;SDS011;21053;50.848;4.652;2024-02-23T09:47:42;168.35;;;153.80;;
34836;SDS011;21053;50.848;4.652;2024-02-23T09:50:16;167.13;;;152.43;;
34836;SDS011;21053;50.848;4.652;2024-02-23T09:52:47;160.82;;;146.65;;
34836;SDS011;21053;50.848;4.652;2024-02-23T09:55:15;130.65;;;119.28;;
34836;SDS011;21053;50.848;4.652;2024-02-23T09:57:46;178.05;;;162.68;;
34836;SDS011;21053;50.848;4.652;2024-02-23T10:00:19;160.95;;;146.95;;
34836;SDS011;21053;50.848;4.652;2024-02-23T10:02:45;137.75;;;124.85;;
34836;SDS011;21053;50.848;4.652;2024-02-23T10:05:15;128.75;;;117.88;;
34836;SDS011;21053;50.848;4.652;2024-02-23T10:07:52;138.57;;;126.88;;
34836;SDS011;21053;50.848;4.652;2024-02-23T10:11:24;135.45;;;123.30;;
34836;SDS011;21053;50.848;4.652;2024-02-23T10:13:52;140.77;;;128.77;;
34836;SDS011;21053;50.848;4.652;2024-02-23T10:16:20;143.55;;;130.75;;
34836;SDS011;21053;50.848;4.652;2024-02-23T10:18:51;128.70;;;117.25;;
34836;SDS011;21053;50.848;4.652;2024-02-23T10:23:47;170.02;;;154.63;;
34836;SDS011;21053;50.848;4.652;2024-02-23T10:26:14;135.60;;;123.53;;
34836;SDS011;21053;50.848;4.652;2024-02-23T10:28:45;116.93;;;106.88;;
34836;SDS011;21053;50.848;4.652;2024-02-23T10:31:13;168.00;;;153.85;;
34836;SDS011;21053;50.848;4.652;2024-02-23T10:33:38;190.70;;;173.52;;
34836;SDS011;21053;50.848;4.652;2024-02-23T10:36:05;178.05;;;161.93;;
34836;SDS011;21053;50.848;4.652;2024-02-23T10:38:38;174.52;;;158.60;;
34836;SDS011;21053;50.848;4.652;2024-02-23T10:41:05;175.63;;;159.90;;
34836;SDS011;21053;50.848;4.652;2024-02-23T10:43:47;173.90;;;158.10;;
34836;SDS011;21053;50.848;4.652;2024-02-23T10:46:16;155.45;;;141.25;;
34836;SDS011;21053;50.848;4.652;2024-02-23T10:48:47;180.02;;;163.82;;
34836;SDS011;21053;50.848;4.652;2024-02-23T10:53:45;259.80;;;236.00;;
34836;SDS011;21053;50.848;4.652;2024-02-23T10:56:12;210.13;;;190.88;;
34836;SDS011;21053;50.848;4.652;2024-02-23T10:58:41;233.75;;;212.70;;
34836;SDS011;21053;50.848;4.652;2024-02-23T11:01:13;204.57;;;186.30;;
34836;SDS011;21053;50.848;4.652;2024-02-23T11:06:14;251.23;;;228.82;;
34836;SDS011;21053;50.848;4.652;2024-02-23T11:08:49;218.57;;;197.30;;
34836;SDS011;21053;50.848;4.652;2024-02-23T11:11:17;270.85;;;246.18;;
34836;SDS011;21053;50.848;4.652;2024-02-23T11:13:46;217.30;;;197.52;;
34836;SDS011;21053;50.848;4.652;2024-02-23T11:16:21;229.45;;;208.20;;
34836;SDS011;21053;50.848;4.652;2024-02-23T11:21:38;275.95;;;250.63;;
34836;SDS011;21053;50.848;4.652;2024-02-23T11:26:40;370.30;;;336.45;;
34836;SDS011;21053;50.848;4.652;2024-02-23T11:29:13;374.48;;;339.02;;
34836;SDS011;21053;50.848;4.652;2024-02-23T11:31:46;341.55;;;310.67;;
34836;SDS011;21053;50.848;4.652;2024-02-23T11:34:14;330.63;;;300.70;;
34836;SDS011;21053;50.848;4.652;2024-02-23T11:39:21;255.75;;;232.80;;
34836;SDS011;21053;50.848;4.652;2024-02-23T11:41:50;306.70;;;278.45;;
34836;SDS011;21053;50.848;4.652;2024-02-23T11:44:19;312.02;;;283.42;;
34836;SDS011;21053;50.848;4.652;2024-02-23T11:46:46;295.77;;;268.45;;
34836;SDS011;21053;50.848;4.652;2024-02-23T11:49:14;279.83;;;253.88;;
34836;SDS011;21053;50.848;4.652;2024-02-23T11:54:10;341.00;;;310.08;;
34836;SDS011;21053;50.848;4.652;2024-02-23T11:56:40;269.58;;;244.38;;
34836;SDS011;21053;50.848;4.652;2024-02-23T11:59:05;297.27;;;269.20;;
34836;SDS011;21053;50.848;4.652;2024-02-23T12:01:34;290.08;;;263.35;;
34836;SDS011;21053;50.848;4.652;2024-02-23T12:04:00;277.92;;;252.07;;
34836;SDS011;21053;50.848;4.652;2024-02-23T12:06:29;360.70;;;326.75;;
34836;SDS011;21053;50.848;4.652;2024-02-23T12:09:00;371.38;;;334.75;;
34836;SDS011;21053;50.848;4.652;2024-02-23T12:13:59;385.38;;;349.55;;
34836;SDS011;21053;50.848;4.652;2024-02-23T12:16:29;329.08;;;298.55;;
34836;SDS011;21053;50.848;4.652;2024-02-23T12:18:57;283.70;;;257.35;;
34836;SDS011;21053;50.848;4.652;2024-02-23T12:21:24;380.65;;;344.90;;
34836;SDS011;21053;50.848;4.652;2024-02-23T12:23:51;361.02;;;327.25;;
34836;SDS011;21053;50.848;4.652;2024-02-23T12:26:19;332.27;;;302.08;;
34836;SDS011;21053;50.848;4.652;2024-02-23T12:28:46;351.33;;;317.95;;
34836;SDS011;21053;50.848;4.652;2024-02-23T12:31:12;299.73;;;271.77;;
34836;SDS011;21053;50.848;4.652;2024-02-23T12:36:07;363.88;;;329.42;;
34836;SDS011;21053;50.848;4.652;2024-02-23T12:38:34;330.45;;;299.00;;
34836;SDS011;21053;50.848;4.652;2024-02-23T12:41:04;326.65;;;295.52;;
34836;SDS011;21053;50.848;4.652;2024-02-23T12:43:30;372.15;;;335.80;;
34836;SDS011;21053;50.848;4.652;2024-02-23T12:45:57;275.58;;;248.48;;
34836;SDS011;21053;50.848;4.652;2024-02-23T12:48:23;329.30;;;295.83;;
34836;SDS011;21053;50.848;4.652;2024-02-23T12:50:50;355.35;;;321.23;;
34836;SDS011;21053;50.848;4.652;2024-02-23T12:53:35;367.50;;;332.40;;
34836;SDS011;21053;50.848;4.652;2024-02-23T12:56:09;337.70;;;304.77;;
34836;SDS011;21053;50.848;4.652;2024-02-23T13:01:11;179.82;;;162.02;;
34836;SDS011;21053;50.848;4.652;2024-02-23T13:03:39;300.30;;;272.40;;
34836;SDS011;21053;50.848;4.652;2024-02-23T13:06:10;327.13;;;296.00;;
34836;SDS011;21053;50.848;4.652;2024-02-23T13:08:43;258.80;;;234.48;;
34836;SDS011;21053;50.848;4.652;2024-02-23T13:11:11;294.00;;;265.98;;
34836;SDS011;21053;50.848;4.652;2024-02-23T13:13:40;234.27;;;212.93;;
34836;SDS011;21053;50.848;4.652;2024-02-23T13:16:05;286.05;;;259.60;;
34836;SDS011;21053;50.848;4.652;2024-02-23T13:18:31;293.67;;;267.55;;
34836;SDS011;21053;50.848;4.652;2024-02-23T13:20:57;292.17;;;266.08;;
34836;SDS011;21053;50.848;4.652;2024-02-23T13:23:23;350.58;;;321.30;;
34836;SDS011;21053;50.848;4.652;2024-02-23T13:25:49;293.10;;;269.00;;
34836;SDS011;21053;50.848;4.652;2024-02-23T13:28:15;238.90;;;219.60;;
34836;SDS011;21053;50.848;4.652;2024-02-23T13:30:47;225.82;;;207.65;;
34836;SDS011;21053;50.848;4.652;2024-02-23T13:33:14;258.25;;;237.65;;
34836;SDS011;21053;50.848;4.652;2024-02-23T13:35:42;283.25;;;260.05;;
34836;SDS011;21053;50.848;4.652;2024-02-23T13:38:09;335.63;;;307.70;;
34836;SDS011;21053;50.848;4.652;2024-02-23T13:40:36;338.23;;;309.02;;
34836;SDS011;21053;50.848;4.652;2024-02-23T13:43:02;356.08;;;326.17;;
34836;SDS011;21053;50.848;4.652;2024-02-23T13:45:29;305.70;;;279.50;;
34836;SDS011;21053;50.848;4.652;2024-02-23T13:48:04;323.00;;;295.08;;
34836;SDS011;21053;50.848;4.652;2024-02-23T13:50:31;385.77;;;352.75;;
34836;SDS011;21053;50.848;4.652;2024-02-23T13:52:59;404.35;;;369.65;;
34836;SDS011;21053;50.848;4.652;2024-02-23T13:55:25;381.35;;;348.25;;
34836;SDS011;21053;50.848;4.652;2024-02-23T13:57:54;365.40;;;334.38;;
34836;SDS011;21053;50.848;4.652;2024-02-23T14:00:21;356.85;;;326.35;;
34836;SDS011;21053;50.848;4.652;2024-02-23T14:02:49;329.23;;;301.02;;
34836;SDS011;21053;50.848;4.652;2024-02-23T14:05:16;367.25;;;336.40;;
34836;SDS011;21053;50.848;4.652;2024-02-23T14:07:46;353.15;;;323.08;;
34836;SDS011;21053;50.848;4.652;2024-02-23T14:10:11;347.05;;;317.52;;
34836;SDS011;21053;50.848;4.652;2024-02-23T14:15:07;368.77;;;337.40;;
34836;SDS011;21053;50.848;4.652;2024-02-23T14:17:34;392.92;;;359.13;;
34836;SDS011;21053;50.848;4.652;2024-02-23T14:20:02;352.85;;;322.73;;
34836;SDS011;21053;50.848;4.652;2024-02-23T14:22:31;350.23;;;320.75;;
34836;SDS011;21053;50.848;4.652;2024-02-23T14:24:56;353.52;;;323.70;;
34836;SDS011;21053;50.848;4.652;2024-02-23T14:29:56;324.67;;;296.27;;
34836;SDS011;21053;50.848;4.652;2024-02-23T14:32:28;318.15;;;291.55;;
34836;SDS011;21053;50.848;4.652;2024-02-23T14:34:55;337.05;;;309.35;;
34836;SDS011;21053;50.848;4.652;2024-02-23T14:37:22;337.77;;;309.90;;
34836;SDS011;21053;50.848;4.652;2024-02-23T14:39:49;320.25;;;293.48;;
34836;SDS011;21053;50.848;4.652;2024-02-23T14:44:45;298.98;;;273.92;;
34836;SDS011;21053;50.848;4.652;2024-02-23T14:47:11;321.27;;;294.27;;
34836;SDS011;21053;50.848;4.652;2024-02-23T14:49:38;328.00;;;300.77;;
34836;SDS011;21053;50.848;4.652;2024-02-23T14:52:04;312.48;;;286.10;;
34836;SDS011;21053;50.848;4.652;2024-02-23T14:54:31;310.33;;;284.33;;
34836;SDS011;21053;50.848;4.652;2024-02-23T14:56:59;317.48;;;291.65;;
34836;SDS011;21053;50.848;4.652;2024-02-23T14:59:27;305.75;;;280.33;;
34836;SDS011;21053;50.848;4.652;2024-02-23T15:01:52;317.17;;;290.95;;
34836;SDS011;21053;50.848;4.652;2024-02-23T15:04:19;291.63;;;266.40;;
34836;SDS011;21053;50.848;4.652;2024-02-23T15:06:50;310.15;;;284.08;;
34836;SDS011;21053;50.848;4.652;2024-02-23T15:09:19;279.38;;;255.95;;
34836;SDS011;21053;50.848;4.652;2024-02-23T15:11:45;282.13;;;258.67;;
34836;SDS011;21053;50.848;4.652;2024-02-23T15:14:14;304.85;;;279.50;;
34836;SDS011;21053;50.848;4.652;2024-02-23T15:16:42;283.73;;;260.20;;
34836;SDS011;21053;50.848;4.652;2024-02-23T15:19:12;320.85;;;294.33;;
34836;SDS011;21053;50.848;4.652;2024-02-23T15:21:37;292.08;;;267.75;;
34836;SDS011;21053;50.848;4.652;2024-02-23T15:24:09;262.42;;;240.23;;
34836;SDS011;21053;50.848;4.652;2024-02-23T15:26:42;274.88;;;252.02;;
34836;SDS011;21053;50.848;4.652;2024-02-23T15:29:09;348.38;;;319.23;;